sensor_id;sensor_type;location;lat;lon;timestamp;pressure;altitude;pressure_sealevel;temperature;humidity
39681;BME280;26327;42.550;23.120;2023-02-02T07:19:14;92906.16;;;3.81;68.97
39681;BME280;26327;42.550;23.120;2023-02-02T07:21:39;92889.06;;;3.90;68.39
39681;BME280;26327;42.550;23.120;2023-02-02T07:24:05;92920.19;;;3.87;68.50
39681;BME280;26327;42.550;23.120;2023-02-02T07:26:30;92859.53;;;4.03;66.94
39681;BME280;26327;42.550;23.120;2023-02-02T07:28:58;92887.84;;;4.31;65.37
39681;BME280;26327;42.550;23.120;2023-02-02T07:31:24;92894.63;;;4.59;63.68
39681;BME280;26327;42.550;23.120;2023-02-02T07:33:51;92907.84;;;4.64;63.62
39681;BME280;26327;42.550;23.120;2023-02-02T07:36:18;92930.44;;;4.70;63.06
39681;BME280;26327;42.550;23.120;2023-02-02T07:38:45;92928.88;;;4.60;63.35
39681;BME280;26327;42.550;23.120;2023-02-02T07:41:12;92854.59;;;4.20;63.01
39681;BME280;26327;42.550;23.120;2023-02-02T07:43:38;92919.97;;;4.54;63.24
39681;BME280;26327;42.550;23.120;2023-02-02T07:46:05;92915.72;;;4.63;62.33
39681;BME280;26327;42.550;23.120;2023-02-02T07:48:33;92912.00;;;4.48;61.94
39681;BME280;26327;42.550;23.120;2023-02-02T07:51:04;92922.72;;;4.43;62.77
39681;BME280;26327;42.550;23.120;2023-02-02T07:53:30;92901.91;;;4.64;62.55
39681;BME280;26327;42.550;23.120;2023-02-02T07:56:08;92918.81;;;4.66;61.94
39681;BME280;26327;42.550;23.120;2023-02-02T07:58:34;92902.06;;;4.62;61.75
39681;BME280;26327;42.550;23.120;2023-02-02T08:01:01;92848.34;;;4.22;62.54
39681;BME280;26327;42.550;23.120;2023-02-02T08:03:27;92903.16;;;4.60;62.32
39681;BME280;26327;42.550;23.120;2023-02-02T08:05:52;92836.50;;;4.11;62.10
39681;BME280;26327;42.550;23.120;2023-02-02T08:08:17;92850.16;;;4.12;61.56
39681;BME280;26327;42.550;23.120;2023-02-02T08:10:50;92910.25;;;4.48;61.75
39681;BME280;26327;42.550;23.120;2023-02-02T08:13:16;92815.50;;;3.89;61.60
39681;BME280;26327;42.550;23.120;2023-02-02T08:15:41;92905.44;;;4.90;60.92
39681;BME280;26327;42.550;23.120;2023-02-02T08:18:06;92827.78;;;4.67;59.72
39681;BME280;26327;42.550;23.120;2023-02-02T08:20:32;92891.38;;;5.74;57.74
39681;BME280;26327;42.550;23.120;2023-02-02T08:22:57;92888.00;;;5.37;57.44
39681;BME280;26327;42.550;23.120;2023-02-02T08:25:23;92873.00;;;5.15;57.75
39681;BME280;26327;42.550;23.120;2023-02-02T08:27:52;92827.97;;;5.01;57.62
39681;BME280;26327;42.550;23.120;2023-02-02T08:30:18;92871.38;;;5.14;57.57
39681;BME280;26327;42.550;23.120;2023-02-02T08:32:43;92805.66;;;5.28;56.67
39681;BME280;26327;42.550;23.120;2023-02-02T08:35:09;92838.03;;;5.74;55.27
39681;BME280;26327;42.550;23.120;2023-02-02T08:37:34;92871.56;;;6.26;54.24
39681;BME280;26327;42.550;23.120;2023-02-02T08:39:59;92872.53;;;6.25;53.62
39681;BME280;26327;42.550;23.120;2023-02-02T08:42:25;92859.84;;;6.40;54.08
39681;BME280;26327;42.550;23.120;2023-02-02T08:44:50;92843.28;;;6.50;52.59
39681;BME280;26327;42.550;23.120;2023-02-02T08:47:15;92873.53;;;6.66;52.65
39681;BME280;26327;42.550;23.120;2023-02-02T08:49:41;92850.28;;;6.66;52.12
39681;BME280;26327;42.550;23.120;2023-02-02T08:52:06;92843.31;;;7.17;52.55
39681;BME280;26327;42.550;23.120;2023-02-02T08:54:32;92856.03;;;8.16;50.11
39681;BME280;26327;42.550;23.120;2023-02-02T08:56:57;92775.59;;;7.54;49.83
39681;BME280;26327;42.550;23.120;2023-02-02T08:59:23;92858.31;;;7.95;49.79
39681;BME280;26327;42.550;23.120;2023-02-02T09:01:48;92798.75;;;8.19;49.08
39681;BME280;26327;42.550;23.120;2023-02-02T09:04:14;92854.09;;;8.96;48.34
39681;BME280;26327;42.550;23.120;2023-02-02T09:06:41;92848.50;;;8.45;48.44
39681;BME280;26327;42.550;23.120;2023-02-02T09:09:09;92860.34;;;8.40;48.88
39681;BME280;26327;42.550;23.120;2023-02-02T09:11:35;92781.94;;;8.15;48.30
39681;BME280;26327;42.550;23.120;2023-02-02T09:14:01;92826.44;;;8.66;47.87
39681;BME280;26327;42.550;23.120;2023-02-02T09:16:28;92767.97;;;10.66;44.30
39681;BME280;26327;42.550;23.120;2023-02-02T09:18:55;92814.63;;;13.93;37.16
39681;BME280;26327;42.550;23.120;2023-02-02T09:21:21;92810.06;;;16.00;33.75
39681;BME280;26327;42.550;23.120;2023-02-02T09:23:48;92811.44;;;18.16;30.62
39681;BME280;26327;42.550;23.120;2023-02-02T09:26:17;92796.59;;;18.56;27.74
39681;BME280;26327;42.550;23.120;2023-02-02T09:28:45;92748.31;;;19.55;27.01
39681;BME280;26327;42.550;23.120;2023-02-02T09:31:10;92802.78;;;20.28;25.62
39681;BME280;26327;42.550;23.120;2023-02-02T09:33:36;92691.28;;;20.93;25.28
39681;BME280;26327;42.550;23.120;2023-02-02T09:36:07;92803.63;;;21.22;23.93
39681;BME280;26327;42.550;23.120;2023-02-02T09:38:33;92775.84;;;21.63;23.79
39681;BME280;26327;42.550;23.120;2023-02-02T09:40:59;92776.03;;;23.27;21.97
39681;BME280;26327;42.550;23.120;2023-02-02T09:48:59;92779.31;;;21.42;23.05
39681;BME280;26327;42.550;23.120;2023-02-02T09:51:29;92715.38;;;22.78;21.51
39681;BME280;26327;42.550;23.120;2023-02-02T09:53:59;92775.25;;;22.10;22.06
39681;BME280;26327;42.550;23.120;2023-02-02T09:56:31;92721.91;;;20.50;23.09
39681;BME280;26327;42.550;23.120;2023-02-02T09:58:59;92772.84;;;20.89;22.31
39681;BME280;26327;42.550;23.120;2023-02-02T10:01:37;92722.72;;;20.00;23.27
39681;BME280;26327;42.550;23.120;2023-02-02T10:04:20;92775.66;;;21.04;22.68
39681;BME280;26327;42.550;23.120;2023-02-02T10:06:51;92747.41;;;20.11;22.94
39681;BME280;26327;42.550;23.120;2023-02-02T10:14:48;92776.38;;;21.39;22.31
39681;BME280;26327;42.550;23.120;2023-02-02T10:19:45;92692.75;;;19.56;23.73
39681;BME280;26327;42.550;23.120;2023-02-02T10:22:17;92711.34;;;20.17;23.56
39681;BME280;26327;42.550;23.120;2023-02-02T10:24:44;92758.63;;;20.73;23.17
39681;BME280;26327;42.550;23.120;2023-02-02T10:27:15;92700.91;;;20.60;22.87
39681;BME280;26327;42.550;23.120;2023-02-02T10:29:50;92705.56;;;20.53;22.58
39681;BME280;26327;42.550;23.120;2023-02-02T10:32:28;92700.97;;;19.60;23.42
39681;BME280;26327;42.550;23.120;2023-02-02T10:45:38;92745.09;;;16.71;28.10
39681;BME280;26327;42.550;23.120;2023-02-02T10:48:18;92734.34;;;16.35;27.71
39681;BME280;26327;42.550;23.120;2023-02-02T10:50:50;92744.50;;;16.07;28.02
39681;BME280;26327;42.550;23.120;2023-02-02T10:53:18;92732.81;;;14.90;30.30
39681;BME280;26327;42.550;23.120;2023-02-02T10:55:50;92723.53;;;14.36;30.55
39681;BME280;26327;42.550;23.120;2023-02-02T10:58:31;92717.22;;;13.40;32.43
39681;BME280;26327;42.550;23.120;2023-02-02T11:01:00;92723.66;;;12.70;34.19
39681;BME280;26327;42.550;23.120;2023-02-02T11:03:30;92715.00;;;11.80;35.66
39681;BME280;26327;42.550;23.120;2023-02-02T11:05:57;92718.84;;;11.14;35.98
39681;BME280;26327;42.550;23.120;2023-02-02T11:08:46;92689.38;;;10.64;37.78
39681;BME280;26327;42.550;23.120;2023-02-02T11:11:19;92718.38;;;10.17;38.47
39681;BME280;26327;42.550;23.120;2023-02-02T11:13:56;92718.19;;;9.89;40.23
39681;BME280;26327;42.550;23.120;2023-02-02T11:16:29;92712.97;;;9.44;40.63
39681;BME280;26327;42.550;23.120;2023-02-02T11:18:55;92697.84;;;9.33;41.44
39681;BME280;26327;42.550;23.120;2023-02-02T11:21:22;92700.31;;;9.50;42.05
39681;BME280;26327;42.550;23.120;2023-02-02T11:23:54;92694.06;;;10.03;42.07
39681;BME280;26327;42.550;23.120;2023-02-02T11:26:22;92697.91;;;10.07;41.16
39681;BME280;26327;42.550;23.120;2023-02-02T11:28:51;92635.91;;;9.53;40.76
39681;BME280;26327;42.550;23.120;2023-02-02T11:31:31;92702.47;;;9.75;40.77
39681;BME280;26327;42.550;23.120;2023-02-02T11:34:18;92692.78;;;9.69;41.38
39681;BME280;26327;42.550;23.120;2023-02-02T11:37:09;92658.06;;;10.00;41.00
39681;BME280;26327;42.550;23.120;2023-02-02T11:39:36;92672.56;;;10.24;40.82
39681;BME280;26327;42.550;23.120;2023-02-02T11:42:12;92650.91;;;10.02;41.48
39681;BME280;26327;42.550;23.120;2023-02-02T11:44:43;92576.00;;;9.48;41.17
39681;BME280;26327;42.550;23.120;2023-02-02T11:47:30;92635.97;;;10.40;41.64
39681;BME280;26327;42.550;23.120;2023-02-02T11:49:57;92625.84;;;10.88;41.48
39681;BME280;26327;42.550;23.120;2023-02-02T11:52:26;92638.41;;;10.84;39.28
39681;BME280;26327;42.550;23.120;2023-02-02T11:54:56;92600.19;;;11.06;38.86
39681;BME280;26327;42.550;23.120;2023-02-02T11:57:24;92567.94;;;11.28;38.89
39681;BME280;26327;42.550;23.120;2023-02-02T12:00:05;92575.69;;;11.22;36.92
39681;BME280;26327;42.550;23.120;2023-02-02T12:02:31;92488.78;;;10.40;38.15
39681;BME280;26327;42.550;23.120;2023-02-02T12:05:32;92638.19;;;11.35;39.02
39681;BME280;26327;42.550;23.120;2023-02-02T12:07:58;92613.75;;;11.57;37.76
39681;BME280;26327;42.550;23.120;2023-02-02T12:11:02;92624.22;;;11.71;37.94
39681;BME280;26327;42.550;23.120;2023-02-02T12:13:39;92597.75;;;11.60;37.30
39681;BME280;26327;42.550;23.120;2023-02-02T12:16:29;92600.41;;;11.74;36.88
39681;BME280;26327;42.550;23.120;2023-02-02T12:24:59;92532.47;;;10.86;36.15
39681;BME280;26327;42.550;23.120;2023-02-02T12:27:45;92620.94;;;11.55;36.34
39681;BME280;26327;42.550;23.120;2023-02-02T12:41:28;92633.94;;;10.99;35.07
39681;BME280;26327;42.550;23.120;2023-02-02T12:44:16;92625.72;;;10.96;34.46
39681;BME280;26327;42.550;23.120;2023-02-02T12:47:01;92624.22;;;10.87;34.88
39681;BME280;26327;42.550;23.120;2023-02-02T12:52:36;92625.47;;;10.69;35.39
39681;BME280;26327;42.550;23.120;2023-02-02T13:01:05;92615.78;;;10.57;35.25
39681;BME280;26327;42.550;23.120;2023-02-02T13:06:57;92619.44;;;10.26;35.25
39681;BME280;26327;42.550;23.120;2023-02-02T13:12:10;92619.09;;;10.29;37.22
39681;BME280;26327;42.550;23.120;2023-02-02T13:14:46;92569.06;;;10.21;37.50
39681;BME280;26327;42.550;23.120;2023-02-02T13:17:20;92605.38;;;10.57;37.29
39681;BME280;26327;42.550;23.120;2023-02-02T13:19:51;92588.50;;;10.46;37.96
39681;BME280;26327;42.550;23.120;2023-02-02T13:22:32;92574.72;;;10.09;38.23
39681;BME280;26327;42.550;23.120;2023-02-02T13:24:59;92610.53;;;10.50;38.19
39681;BME280;26327;42.550;23.120;2023-02-02T13:27:25;92622.47;;;10.45;38.96
39681;BME280;26327;42.550;23.120;2023-02-02T13:32:47;92633.47;;;9.96;40.59
39681;BME280;26327;42.550;23.120;2023-02-02T13:35:22;92637.41;;;9.77;41.57
39681;BME280;26327;42.550;23.120;2023-02-02T13:38:24;92645.22;;;9.62;42.32
39681;BME280;26327;42.550;23.120;2023-02-02T13:40:42;92584.75;;;9.03;42.52
39681;BME280;26327;42.550;23.120;2023-02-02T13:49:01;92665.34;;;9.08;44.59
39681;BME280;26327;42.550;23.120;2023-02-02T14:00:20;92632.84;;;7.75;51.44
39681;BME280;26327;42.550;23.120;2023-02-02T14:03:00;92662.16;;;7.98;51.75
39681;BME280;26327;42.550;23.120;2023-02-02T14:05:36;92655.19;;;8.07;51.67
39681;BME280;26327;42.550;23.120;2023-02-02T14:08:03;92672.69;;;7.97;51.38
39681;BME280;26327;42.550;23.120;2023-02-02T14:13:23;92650.63;;;7.78;51.94
39681;BME280;26327;42.550;23.120;2023-02-02T14:16:23;92608.59;;;7.37;53.35
39681;BME280;26327;42.550;23.120;2023-02-02T14:23:58;92667.56;;;7.33;57.57
39681;BME280;26327;42.550;23.120;2023-02-02T14:26:54;92671.63;;;7.19;58.19
39681;BME280;26327;42.550;23.120;2023-02-02T14:45:33;92672.94;;;6.91;64.08
39681;BME280;26327;42.550;23.120;2023-02-02T14:55:29;92680.84;;;6.89;62.34
39681;BME280;26327;42.550;23.120;2023-02-02T14:58:00;92684.91;;;6.76;62.70
39681;BME280;26327;42.550;23.120;2023-02-02T15:00:30;92684.25;;;6.74;62.94
39681;BME280;26327;42.550;23.120;2023-02-02T15:06:05;92679.75;;;6.76;62.98
39681;BME280;26327;42.550;23.120;2023-02-02T15:08:32;92705.72;;;6.99;62.42
39681;BME280;26327;42.550;23.120;2023-02-02T15:11:07;92755.75;;;6.73;65.38
39681;BME280;26327;42.550;23.120;2023-02-02T15:13:55;92675.25;;;5.95;69.04
39681;BME280;26327;42.550;23.120;2023-02-02T15:16:28;92745.84;;;6.52;70.18
39681;BME280;26327;42.550;23.120;2023-02-02T15:19:04;92736.44;;;6.27;70.12
39681;BME280;26327;42.550;23.120;2023-02-02T15:21:32;92826.91;;;6.25;73.24
39681;BME280;26327;42.550;23.120;2023-02-02T15:24:00;92768.91;;;5.44;76.33
39681;BME280;26327;42.550;23.120;2023-02-02T15:26:36;92730.19;;;5.35;77.68
39681;BME280;26327;42.550;23.120;2023-02-02T15:29:32;92821.78;;;5.74;79.90
39681;BME280;26327;42.550;23.120;2023-02-02T15:31:59;92824.00;;;5.94;80.68
39681;BME280;26327;42.550;23.120;2023-02-02T15:34:36;92834.69;;;6.08;80.20
39681;BME280;26327;42.550;23.120;2023-02-02T15:37:05;92805.84;;;5.78;81.17
39681;BME280;26327;42.550;23.120;2023-02-02T15:39:42;92850.50;;;6.05;80.75
39681;BME280;26327;42.550;23.120;2023-02-02T15:42:16;92822.72;;;5.98;80.81
39681;BME280;26327;42.550;23.120;2023-02-02T15:45:02;92809.38;;;5.77;80.94
39681;BME280;26327;42.550;23.120;2023-02-02T15:47:32;92848.41;;;6.08;80.71
39681;BME280;26327;42.550;23.120;2023-02-02T15:49:57;92845.91;;;6.16;80.04
39681;BME280;26327;42.550;23.120;2023-02-02T15:52:30;92783.25;;;5.72;80.02
39681;BME280;26327;42.550;23.120;2023-02-02T15:55:38;92756.22;;;5.50;79.29
39681;BME280;26327;42.550;23.120;2023-02-02T15:58:21;92792.91;;;5.70;79.96
39681;BME280;26327;42.550;23.120;2023-02-02T16:00:54;92840.06;;;5.88;79.18
39681;BME280;26327;42.550;23.120;2023-02-02T16:03:25;92725.38;;;5.15;79.34
39681;BME280;26327;42.550;23.120;2023-02-02T16:05:55;92794.38;;;5.73;79.44
39681;BME280;26327;42.550;23.120;2023-02-02T16:08:27;92851.28;;;6.05;78.52
39681;BME280;26327;42.550;23.120;2023-02-02T16:13:30;92777.31;;;5.54;78.34
39681;BME280;26327;42.550;23.120;2023-02-02T16:16:02;92869.91;;;6.17;78.71
39681;BME280;26327;42.550;23.120;2023-02-02T16:18:30;92876.97;;;6.15;78.40
39681;BME280;26327;42.550;23.120;2023-02-02T16:20:58;92858.19;;;5.96;78.53
39681;BME280;26327;42.550;23.120;2023-02-02T16:23:32;92693.00;;;4.68;78.76
39681;BME280;26327;42.550;23.120;2023-02-02T16:26:01;92815.28;;;5.44;78.34
39681;BME280;26327;42.550;23.120;2023-02-02T16:28:28;92889.03;;;6.06;78.31
39681;BME280;26327;42.550;23.120;2023-02-02T16:30:53;92892.44;;;6.15;78.31
39681;BME280;26327;42.550;23.120;2023-02-02T16:33:28;92875.94;;;5.99;78.71
39681;BME280;26327;42.550;23.120;2023-02-02T16:35:55;92870.88;;;6.16;78.18
39681;BME280;26327;42.550;23.120;2023-02-02T16:38:35;92795.91;;;5.65;77.46
39681;BME280;26327;42.550;23.120;2023-02-02T16:41:09;92822.72;;;5.73;76.27
39681;BME280;26327;42.550;23.120;2023-02-02T16:43:36;92893.69;;;6.03;76.28
39681;BME280;26327;42.550;23.120;2023-02-02T16:46:09;92861.72;;;5.95;75.47
39681;BME280;26327;42.550;23.120;2023-02-02T16:48:41;92869.19;;;6.07;75.15
39681;BME280;26327;42.550;23.120;2023-02-02T16:53:42;92776.00;;;5.24;74.48
39681;BME280;26327;42.550;23.120;2023-02-02T16:56:10;92897.03;;;6.21;74.70
39681;BME280;26327;42.550;23.120;2023-02-02T16:58:44;92868.50;;;5.96;73.87
39681;BME280;26327;42.550;23.120;2023-02-02T17:01:11;92837.44;;;5.80;73.90
39681;BME280;26327;42.550;23.120;2023-02-02T17:03:39;92916.06;;;6.20;74.22
39681;BME280;26327;42.550;23.120;2023-02-02T17:06:06;92837.44;;;5.80;73.31
39681;BME280;26327;42.550;23.120;2023-02-02T17:08:37;92866.22;;;5.93;72.89
39681;BME280;26327;42.550;23.120;2023-02-02T17:15:56;92915.53;;;6.16;73.00
39681;BME280;26327;42.550;23.120;2023-02-02T17:18:22;92896.44;;;6.09;73.45
39681;BME280;26327;42.550;23.120;2023-02-02T17:20:48;92890.25;;;6.20;72.89
39681;BME280;26327;42.550;23.120;2023-02-02T17:23:20;92891.78;;;6.13;73.17
39681;BME280;26327;42.550;23.120;2023-02-02T17:25:46;92830.53;;;5.63;74.13
39681;BME280;26327;42.550;23.120;2023-02-02T17:28:19;92836.94;;;5.59;74.56
39681;BME280;26327;42.550;23.120;2023-02-02T17:30:49;92812.78;;;5.34;75.07
39681;BME280;26327;42.550;23.120;2023-02-02T17:33:17;92907.59;;;5.48;77.06
39681;BME280;26327;42.550;23.120;2023-02-02T17:35:44;92903.38;;;5.47;78.43
39681;BME280;26327;42.550;23.120;2023-02-02T17:38:10;92909.59;;;5.36;79.00
39681;BME280;26327;42.550;23.120;2023-02-02T17:40:36;92832.91;;;4.95;79.06
39681;BME280;26327;42.550;23.120;2023-02-02T17:43:01;92838.97;;;4.58;79.90
39681;BME280;26327;42.550;23.120;2023-02-02T17:45:34;92792.56;;;4.68;79.34
39681;BME280;26327;42.550;23.120;2023-02-02T17:48:00;92891.41;;;5.38;79.06
39681;BME280;26327;42.550;23.120;2023-02-02T17:50:27;92928.19;;;5.66;77.93
39681;BME280;26327;42.550;23.120;2023-02-02T17:52:53;92892.03;;;5.58;77.80
39681;BME280;26327;42.550;23.120;2023-02-02T17:55:22;92949.13;;;5.45;79.45
39681;BME280;26327;42.550;23.120;2023-02-02T17:57:49;92901.97;;;4.82;80.02
39681;BME280;26327;42.550;23.120;2023-02-02T18:00:16;92860.13;;;4.97;79.56
39681;BME280;26327;42.550;23.120;2023-02-02T18:02:42;92914.94;;;5.61;78.97
39681;BME280;26327;42.550;23.120;2023-02-02T18:05:09;92790.47;;;4.81;78.21
39681;BME280;26327;42.550;23.120;2023-02-02T18:07:35;92935.72;;;5.77;77.64
39681;BME280;26327;42.550;23.120;2023-02-02T18:10:05;92924.78;;;5.83;77.50
39681;BME280;26327;42.550;23.120;2023-02-02T18:12:30;92940.63;;;5.88;76.99
39681;BME280;26327;42.550;23.120;2023-02-02T18:15:00;92928.41;;;5.90;76.63
39681;BME280;26327;42.550;23.120;2023-02-02T18:17:26;92938.78;;;5.98;76.10
39681;BME280;26327;42.550;23.120;2023-02-02T18:19:51;92938.13;;;5.96;75.90
39681;BME280;26327;42.550;23.120;2023-02-02T18:22:17;92877.19;;;5.16;77.23
39681;BME280;26327;42.550;23.120;2023-02-02T18:24:42;92930.69;;;5.58;78.58
39681;BME280;26327;42.550;23.120;2023-02-02T18:27:08;92906.25;;;5.62;77.50
39681;BME280;26327;42.550;23.120;2023-02-02T18:29:34;92866.22;;;5.32;77.38
39681;BME280;26327;42.550;23.120;2023-02-02T18:32:00;92958.97;;;5.85;77.37
39681;BME280;26327;42.550;23.120;2023-02-02T18:34:32;92785.16;;;4.83;77.31
39681;BME280;26327;42.550;23.120;2023-02-02T18:36:58;92814.75;;;4.79;78.18
39681;BME280;26327;42.550;23.120;2023-02-02T18:39:24;92853.50;;;4.95;78.88
39681;BME280;26327;42.550;23.120;2023-02-02T18:41:49;92887.56;;;5.06;79.58
39681;BME280;26327;42.550;23.120;2023-02-02T18:44:15;92925.50;;;4.87;80.68
39681;BME280;26327;42.550;23.120;2023-02-02T18:46:41;92963.72;;;5.09;80.69
39681;BME280;26327;42.550;23.120;2023-02-02T18:49:06;92900.22;;;4.72;80.55
39681;BME280;26327;42.550;23.120;2023-02-02T18:51:31;92865.38;;;4.33;81.60
39681;BME280;26327;42.550;23.120;2023-02-02T18:53:57;92910.63;;;4.53;82.85
39681;BME280;26327;42.550;23.120;2023-02-02T18:56:27;92953.06;;;4.77;83.62
39681;BME280;26327;42.550;23.120;2023-02-02T18:58:52;92952.41;;;4.74;83.93
39681;BME280;26327;42.550;23.120;2023-02-02T19:01:19;92941.19;;;4.93;82.62
39681;BME280;26327;42.550;23.120;2023-02-02T19:03:49;92931.81;;;4.74;84.02
39681;BME280;26327;42.550;23.120;2023-02-02T19:06:15;92930.44;;;4.70;84.03
39681;BME280;26327;42.550;23.120;2023-02-02T19:09:00;92922.81;;;4.51;84.01
39681;BME280;26327;42.550;23.120;2023-02-02T19:11:35;92941.84;;;4.68;83.89
39681;BME280;26327;42.550;23.120;2023-02-02T19:14:08;92949.47;;;4.60;84.88
39681;BME280;26327;42.550;23.120;2023-02-02T19:16:35;92918.19;;;4.27;84.96
39681;BME280;26327;42.550;23.120;2023-02-02T19:19:16;92920.69;;;4.00;86.12
39681;BME280;26327;42.550;23.120;2023-02-02T19:21:44;92908.66;;;4.00;86.11
39681;BME280;26327;42.550;23.120;2023-02-02T19:24:11;92910.09;;;4.13;86.03
39681;BME280;26327;42.550;23.120;2023-02-02T19:26:39;92953.22;;;4.38;85.38
39681;BME280;26327;42.550;23.120;2023-02-02T19:29:13;92947.41;;;4.63;85.93
39681;BME280;26327;42.550;23.120;2023-02-02T19:31:39;92897.47;;;4.29;85.33
39681;BME280;26327;42.550;23.120;2023-02-02T19:34:10;92945.25;;;4.31;85.43
39681;BME280;26327;42.550;23.120;2023-02-02T19:36:36;92957.41;;;4.39;85.99
39681;BME280;26327;42.550;23.120;2023-02-02T19:39:11;92948.63;;;4.32;85.90
39681;BME280;26327;42.550;23.120;2023-02-02T19:41:39;92932.88;;;4.45;85.49
39681;BME280;26327;42.550;23.120;2023-02-02T19:44:14;92949.69;;;4.76;84.24
39681;BME280;26327;42.550;23.120;2023-02-02T19:46:43;92946.00;;;4.79;83.20
39681;BME280;26327;42.550;23.120;2023-02-02T19:49:32;92971.84;;;4.87;84.39
39681;BME280;26327;42.550;23.120;2023-02-02T19:51:58;92963.31;;;4.86;83.80
39681;BME280;26327;42.550;23.120;2023-02-02T19:54:35;92979.03;;;4.83;83.97
39681;BME280;26327;42.550;23.120;2023-02-02T19:57:18;92952.56;;;4.63;83.57
39681;BME280;26327;42.550;23.120;2023-02-02T19:59:46;92958.81;;;4.61;84.12
39681;BME280;26327;42.550;23.120;2023-02-02T20:05:14;92977.31;;;4.37;85.81
39681;BME280;26327;42.550;23.120;2023-02-02T20:07:41;92940.84;;;4.04;85.61
39681;BME280;26327;42.550;23.120;2023-02-02T20:12:38;92976.13;;;4.22;86.07
39681;BME280;26327;42.550;23.120;2023-02-02T20:17:44;92916.38;;;4.00;86.29
39681;BME280;26327;42.550;23.120;2023-02-02T20:20:28;92986.09;;;4.44;86.80
39681;BME280;26327;42.550;23.120;2023-02-02T20:22:55;92961.00;;;4.09;87.00
39681;BME280;26327;42.550;23.120;2023-02-02T20:25:21;92904.50;;;3.70;87.50
39681;BME280;26327;42.550;23.120;2023-02-02T20:27:47;92979.13;;;4.07;87.67
39681;BME280;26327;42.550;23.120;2023-02-02T20:30:23;92970.78;;;3.86;88.81
39681;BME280;26327;42.550;23.120;2023-02-02T20:32:54;92837.25;;;3.28;88.20
39681;BME280;26327;42.550;23.120;2023-02-02T20:35:34;92980.69;;;4.37;87.20
39681;BME280;26327;42.550;23.120;2023-02-02T20:38:25;92956.19;;;4.43;86.18
39681;BME280;26327;42.550;23.120;2023-02-02T20:40:55;92948.91;;;4.19;86.68
39681;BME280;26327;42.550;23.120;2023-02-02T20:43:21;92897.19;;;3.75;86.47
39681;BME280;26327;42.550;23.120;2023-02-02T20:45:47;92949.84;;;3.81;87.98
39681;BME280;26327;42.550;23.120;2023-02-02T20:48:12;92948.06;;;3.62;89.78
39681;BME280;26327;42.550;23.120;2023-02-02T20:50:39;92888.59;;;3.57;88.45
39681;BME280;26327;42.550;23.120;2023-02-02T20:53:05;92960.31;;;4.26;87.38
39681;BME280;26327;42.550;23.120;2023-02-02T20:55:31;92951.34;;;4.21;87.36
39681;BME280;26327;42.550;23.120;2023-02-02T20:58:03;92944.19;;;4.15;87.42
39681;BME280;26327;42.550;23.120;2023-02-02T21:00:29;92907.47;;;3.75;87.49
39681;BME280;26327;42.550;23.120;2023-02-02T21:02:54;92857.41;;;3.33;88.34
39681;BME280;26327;42.550;23.120;2023-02-02T21:05:21;92947.00;;;3.65;87.63
39681;BME280;26327;42.550;23.120;2023-02-02T21:07:47;92908.34;;;3.57;81.45
39681;BME280;26327;42.550;23.120;2023-02-02T21:10:13;92855.34;;;3.27;83.31
39681;BME280;26327;42.550;23.120;2023-02-02T21:12:38;92869.16;;;3.45;84.51
39681;BME280;26327;42.550;23.120;2023-02-02T21:15:04;92942.34;;;3.97;84.75
39681;BME280;26327;42.550;23.120;2023-02-02T21:17:30;92953.00;;;4.12;84.52
39681;BME280;26327;42.550;23.120;2023-02-02T21:19:55;92957.75;;;4.54;83.22
39681;BME280;26327;42.550;23.120;2023-02-02T21:22:21;92865.28;;;3.78;82.81
39681;BME280;26327;42.550;23.120;2023-02-02T21:24:46;92951.22;;;4.32;83.11
39681;BME280;26327;42.550;23.120;2023-02-02T21:27:12;92926.06;;;4.16;84.07
39681;BME280;26327;42.550;23.120;2023-02-02T21:29:37;92940.66;;;4.25;83.97
39681;BME280;26327;42.550;23.120;2023-02-02T21:32:03;92927.72;;;4.07;84.04
39681;BME280;26327;42.550;23.120;2023-02-02T21:34:29;92970.75;;;4.52;83.70
39681;BME280;26327;42.550;23.120;2023-02-02T21:36:56;92848.09;;;3.88;83.18
39681;BME280;26327;42.550;23.120;2023-02-02T21:42:10;92913.41;;;4.42;80.95
39681;BME280;26327;42.550;23.120;2023-02-02T21:49:51;92960.50;;;4.80;80.13
39681;BME280;26327;42.550;23.120;2023-02-02T21:52:18;92958.31;;;4.85;80.51
39681;BME280;26327;42.550;23.120;2023-02-02T21:54:45;92945.13;;;4.60;80.69
39681;BME280;26327;42.550;23.120;2023-02-02T21:57:24;92901.88;;;4.46;80.80
39681;BME280;26327;42.550;23.120;2023-02-02T21:59:55;92937.91;;;4.73;79.91
39681;BME280;26327;42.550;23.120;2023-02-02T22:02:33;92999.44;;;4.94;80.26
39681;BME280;26327;42.550;23.120;2023-02-02T22:05:01;92984.34;;;4.82;80.94
39681;BME280;26327;42.550;23.120;2023-02-02T22:07:34;92963.22;;;4.68;80.79
39681;BME280;26327;42.550;23.120;2023-02-02T22:10:00;92857.69;;;3.86;82.12
39681;BME280;26327;42.550;23.120;2023-02-02T22:12:25;92748.84;;;3.31;81.12
39681;BME280;26327;42.550;23.120;2023-02-02T22:15:01;92938.88;;;4.35;82.12
39681;BME280;26327;42.550;23.120;2023-02-02T22:17:39;92832.97;;;4.13;80.09
39681;BME280;26327;42.550;23.120;2023-02-02T22:22:45;92925.78;;;4.29;81.71
39681;BME280;26327;42.550;23.120;2023-02-02T22:27:53;92955.22;;;4.44;82.64
39681;BME280;26327;42.550;23.120;2023-02-02T22:30:32;92886.72;;;4.06;82.84
39681;BME280;26327;42.550;23.120;2023-02-02T22:32:59;92907.78;;;4.19;82.56
39681;BME280;26327;42.550;23.120;2023-02-02T22:35:25;92924.00;;;4.29;82.29
39681;BME280;26327;42.550;23.120;2023-02-02T22:37:50;92941.53;;;4.43;83.20
39681;BME280;26327;42.550;23.120;2023-02-02T22:40:16;92908.81;;;4.63;82.01
39681;BME280;26327;42.550;23.120;2023-02-02T22:42:47;92928.34;;;4.56;82.26
39681;BME280;26327;42.550;23.120;2023-02-02T22:45:12;92942.34;;;4.81;81.91
39681;BME280;26327;42.550;23.120;2023-02-02T22:47:37;92934.53;;;4.73;82.28
39681;BME280;26327;42.550;23.120;2023-02-02T22:50:03;92932.56;;;4.10;84.16
39681;BME280;26327;42.550;23.120;2023-02-02T22:52:29;92959.94;;;4.49;83.90